TAF and METAR

Could not understand the following METAR

YTNK 181300Z AUTO 12007KT //// // NCD 26/07 Q1017

TAF for Tennant Creek Airport

TAF YTNK 180646Z 1808/1820 10012KT CAVOK
Report created 18. apr 08:46

between 18. apr 10:00 - 18. apr 22:00

wind 12 knots from E (100°) Clear sky
Tennant Creek Airport in Australia at 377m

Latest 5 airports